UKDR/KWG METAR and TAF weather

Enter ICAO airport designator
Station Type Date Time Source
UKDR METAR 2018/12/12 11:30 UTC NOAA

UKDR 121130Z 29006MPS 9999 OVC013 01/M02 Q1006 R36/5980// NOSIG


Station Type Date Time Source
UKDR Decoded METAR 2018/12/12 11:30 UTC NOAA

Krivyy Rih / Dnipropetrovs'k, Ukraine (UKDR) 48-03N 033-13-12E
Dec 12, 2018 - 06:30 AM EST / 2018.12.12 1130 UTC
Wind: from the WNW (290 degrees) at 13 MPH (12 KT):0
Visibility: greater than 7 mile(s):0
Sky conditions: overcast
Temperature: 33 F (1 C)
Windchill: 23 F (-5 C):1
Dew Point: 28 F (-2 C)
Relative Humidity: 80%
Pressure (altimeter): 29.71 in. Hg (1006 hPa)
ob: UKDR 121130Z 29006MPS 9999 OVC013 01/M02 Q1006 R36/5980// NOSIG
cycle: 11

Station Type Date Time Source
UKDR TAF 2018/12/12 12:00 UTC NOAA

TAF UKDR 121108Z 1212/1312 28007G12MPS 4000 BR OVC007 TX01/1212Z TNM01/1221Z
TEMPO 1212/1216 1100 -SNRA BR OVC003
BECMG 1222/1224 22006MPS


Example: see airport list